sensor_id;sensor_type;location;lat;lon;timestamp;P1;durP1;ratioP1;P2;durP2;ratioP2
74412;SDS011;62848;55.798;37.608;2022-09-09T00:02:19;3.30;;;1.70;;
74412;SDS011;62848;55.798;37.608;2022-09-09T00:04:53;3.75;;;1.88;;
74412;SDS011;62848;55.798;37.608;2022-09-09T00:07:28;4.50;;;1.90;;
74412;SDS011;62848;55.798;37.608;2022-09-09T00:20:58;5.13;;;1.95;;
74412;SDS011;62848;55.798;37.608;2022-09-09T00:23:43;4.32;;;1.92;;
74412;SDS011;62848;55.798;37.608;2022-09-09T00:26:16;5.43;;;2.08;;
74412;SDS011;62848;55.798;37.608;2022-09-09T00:32:00;4.90;;;2.30;;
74412;SDS011;62848;55.798;37.608;2022-09-09T00:34:38;6.05;;;2.20;;
74412;SDS011;62848;55.798;37.608;2022-09-09T00:37:13;5.68;;;1.98;;
74412;SDS011;62848;55.798;37.608;2022-09-09T00:39:46;7.45;;;2.55;;
74412;SDS011;62848;55.798;37.608;2022-09-09T00:42:18;5.28;;;2.25;;
74412;SDS011;62848;55.798;37.608;2022-09-09T00:45:10;5.35;;;1.83;;
74412;SDS011;62848;55.798;37.608;2022-09-09T00:48:00;5.10;;;2.22;;
74412;SDS011;62848;55.798;37.608;2022-09-09T00:50:55;5.20;;;2.00;;
74412;SDS011;62848;55.798;37.608;2022-09-09T00:56:11;3.30;;;2.00;;
74412;SDS011;62848;55.798;37.608;2022-09-09T00:58:47;5.70;;;2.42;;
74412;SDS011;62848;55.798;37.608;2022-09-09T01:01:25;4.90;;;2.67;;
74412;SDS011;62848;55.798;37.608;2022-09-09T01:03:55;4.90;;;2.67;;
74412;SDS011;62848;55.798;37.608;2022-09-09T01:28:55;4.43;;;2.15;;
74412;SDS011;62848;55.798;37.608;2022-09-09T01:34:17;6.10;;;2.35;;
74412;SDS011;62848;55.798;37.608;2022-09-09T01:39:31;4.13;;;1.90;;
74412;SDS011;62848;55.798;37.608;2022-09-09T01:42:00;4.18;;;2.08;;
74412;SDS011;62848;55.798;37.608;2022-09-09T01:44:27;4.10;;;2.03;;
74412;SDS011;62848;55.798;37.608;2022-09-09T01:46:54;4.32;;;1.90;;
74412;SDS011;62848;55.798;37.608;2022-09-09T01:49:21;4.57;;;2.10;;
74412;SDS011;62848;55.798;37.608;2022-09-09T01:51:49;4.45;;;2.25;;
74412;SDS011;62848;55.798;37.608;2022-09-09T02:02:43;4.68;;;2.45;;
74412;SDS011;62848;55.798;37.608;2022-09-09T02:07:47;5.50;;;2.10;;
74412;SDS011;62848;55.798;37.608;2022-09-09T02:12:55;5.03;;;1.98;;
74412;SDS011;62848;55.798;37.608;2022-09-09T02:18:19;5.40;;;2.08;;
74412;SDS011;62848;55.798;37.608;2022-09-09T02:20:53;6.30;;;2.00;;
74412;SDS011;62848;55.798;37.608;2022-09-09T02:23:21;9.77;;;2.70;;
74412;SDS011;62848;55.798;37.608;2022-09-09T02:25:48;11.05;;;2.60;;
74412;SDS011;62848;55.798;37.608;2022-09-09T02:28:16;7.30;;;2.85;;
74412;SDS011;62848;55.798;37.608;2022-09-09T02:30:46;4.17;;;2.00;;
74412;SDS011;62848;55.798;37.608;2022-09-09T02:33:22;6.00;;;3.90;;
74412;SDS011;62848;55.798;37.608;2022-09-09T02:35:52;6.10;;;3.25;;
74412;SDS011;62848;55.798;37.608;2022-09-09T02:38:21;4.53;;;2.38;;
74412;SDS011;62848;55.798;37.608;2022-09-09T02:40:51;4.03;;;2.40;;
74412;SDS011;62848;55.798;37.608;2022-09-09T02:43:17;4.55;;;2.20;;
74412;SDS011;62848;55.798;37.608;2022-09-09T02:45:47;6.78;;;2.17;;
74412;SDS011;62848;55.798;37.608;2022-09-09T02:48:22;3.97;;;2.22;;
74412;SDS011;62848;55.798;37.608;2022-09-09T02:59:18;6.35;;;2.25;;
74412;SDS011;62848;55.798;37.608;2022-09-09T03:01:44;6.85;;;2.15;;
74412;SDS011;62848;55.798;37.608;2022-09-09T03:04:10;8.88;;;2.38;;
74412;SDS011;62848;55.798;37.608;2022-09-09T03:06:36;6.15;;;2.47;;
74412;SDS011;62848;55.798;37.608;2022-09-09T03:09:03;8.20;;;2.85;;
74412;SDS011;62848;55.798;37.608;2022-09-09T03:11:29;9.20;;;2.50;;
74412;SDS011;62848;55.798;37.608;2022-09-09T03:13:56;4.45;;;2.25;;
74412;SDS011;62848;55.798;37.608;2022-09-09T03:16:22;5.18;;;2.28;;
74412;SDS011;62848;55.798;37.608;2022-09-09T03:18:49;4.95;;;2.30;;
74412;SDS011;62848;55.798;37.608;2022-09-09T03:21:15;6.15;;;2.50;;
74412;SDS011;62848;55.798;37.608;2022-09-09T03:23:41;5.10;;;2.67;;
74412;SDS011;62848;55.798;37.608;2022-09-09T03:26:09;5.95;;;3.15;;
74412;SDS011;62848;55.798;37.608;2022-09-09T03:28:35;8.45;;;2.42;;
74412;SDS011;62848;55.798;37.608;2022-09-09T03:31:02;12.25;;;3.58;;
74412;SDS011;62848;55.798;37.608;2022-09-09T03:33:30;10.23;;;3.60;;
74412;SDS011;62848;55.798;37.608;2022-09-09T03:35:57;6.75;;;3.58;;
74412;SDS011;62848;55.798;37.608;2022-09-09T03:38:24;7.28;;;3.28;;
74412;SDS011;62848;55.798;37.608;2022-09-09T03:40:51;7.72;;;3.28;;
74412;SDS011;62848;55.798;37.608;2022-09-09T03:43:25;5.95;;;3.88;;
74412;SDS011;62848;55.798;37.608;2022-09-09T03:45:53;6.68;;;3.30;;
74412;SDS011;62848;55.798;37.608;2022-09-09T03:48:23;4.38;;;2.80;;
74412;SDS011;62848;55.798;37.608;2022-09-09T03:50:51;7.65;;;2.83;;
74412;SDS011;62848;55.798;37.608;2022-09-09T03:53:19;7.70;;;2.92;;
74412;SDS011;62848;55.798;37.608;2022-09-09T03:55:48;8.18;;;3.17;;
74412;SDS011;62848;55.798;37.608;2022-09-09T03:58:19;9.20;;;3.63;;
74412;SDS011;62848;55.798;37.608;2022-09-09T04:00:59;7.97;;;3.10;;
74412;SDS011;62848;55.798;37.608;2022-09-09T04:03:27;9.90;;;2.72;;
74412;SDS011;62848;55.798;37.608;2022-09-09T04:05:54;7.10;;;2.58;;
74412;SDS011;62848;55.798;37.608;2022-09-09T04:08:23;7.97;;;2.40;;
74412;SDS011;62848;55.798;37.608;2022-09-09T04:10:50;6.35;;;2.63;;
74412;SDS011;62848;55.798;37.608;2022-09-09T04:13:18;7.35;;;2.67;;
74412;SDS011;62848;55.798;37.608;2022-09-09T04:15:54;5.45;;;2.40;;
74412;SDS011;62848;55.798;37.608;2022-09-09T04:18:22;8.50;;;2.50;;
74412;SDS011;62848;55.798;37.608;2022-09-09T04:20:50;5.10;;;2.42;;
74412;SDS011;62848;55.798;37.608;2022-09-09T04:23:17;6.70;;;2.40;;
74412;SDS011;62848;55.798;37.608;2022-09-09T04:25:48;4.68;;;1.90;;
74412;SDS011;62848;55.798;37.608;2022-09-09T04:28:19;6.22;;;2.15;;
74412;SDS011;62848;55.798;37.608;2022-09-09T04:30:47;6.35;;;2.13;;
74412;SDS011;62848;55.798;37.608;2022-09-09T04:33:15;6.43;;;2.53;;
74412;SDS011;62848;55.798;37.608;2022-09-09T04:35:46;5.65;;;2.30;;
74412;SDS011;62848;55.798;37.608;2022-09-09T04:38:14;4.63;;;1.80;;
74412;SDS011;62848;55.798;37.608;2022-09-09T04:40:48;5.80;;;2.05;;
74412;SDS011;62848;55.798;37.608;2022-09-09T04:43:16;4.90;;;1.90;;
74412;SDS011;62848;55.798;37.608;2022-09-09T04:45:46;6.25;;;2.25;;
74412;SDS011;62848;55.798;37.608;2022-09-09T04:48:13;4.95;;;2.08;;
74412;SDS011;62848;55.798;37.608;2022-09-09T04:50:40;4.72;;;1.98;;
74412;SDS011;62848;55.798;37.608;2022-09-09T04:53:06;3.70;;;2.17;;
74412;SDS011;62848;55.798;37.608;2022-09-09T04:55:33;5.07;;;2.10;;
74412;SDS011;62848;55.798;37.608;2022-09-09T04:58:07;3.40;;;2.08;;
74412;SDS011;62848;55.798;37.608;2022-09-09T05:00:34;4.57;;;1.85;;
74412;SDS011;62848;55.798;37.608;2022-09-09T05:03:04;4.07;;;2.17;;
74412;SDS011;62848;55.798;37.608;2022-09-09T05:05:31;4.65;;;2.10;;
74412;SDS011;62848;55.798;37.608;2022-09-09T05:08:05;4.53;;;2.00;;
74412;SDS011;62848;55.798;37.608;2022-09-09T05:10:34;4.70;;;1.88;;
74412;SDS011;62848;55.798;37.608;2022-09-09T05:15:30;5.68;;;1.80;;
74412;SDS011;62848;55.798;37.608;2022-09-09T05:18:00;5.60;;;2.03;;
74412;SDS011;62848;55.798;37.608;2022-09-09T05:20:27;5.90;;;1.85;;
74412;SDS011;62848;55.798;37.608;2022-09-09T05:22:55;6.00;;;1.80;;
74412;SDS011;62848;55.798;37.608;2022-09-09T05:25:22;6.38;;;2.92;;
74412;SDS011;62848;55.798;37.608;2022-09-09T05:27:51;10.43;;;2.63;;
74412;SDS011;62848;55.798;37.608;2022-09-09T05:30:18;7.72;;;1.95;;
74412;SDS011;62848;55.798;37.608;2022-09-09T05:32:45;4.35;;;1.77;;
74412;SDS011;62848;55.798;37.608;2022-09-09T05:35:12;5.00;;;2.28;;
74412;SDS011;62848;55.798;37.608;2022-09-09T05:37:39;8.23;;;1.90;;
74412;SDS011;62848;55.798;37.608;2022-09-09T05:40:05;4.57;;;2.45;;
74412;SDS011;62848;55.798;37.608;2022-09-09T05:42:32;6.35;;;2.60;;
74412;SDS011;62848;55.798;37.608;2022-09-09T05:44:58;3.60;;;1.98;;
74412;SDS011;62848;55.798;37.608;2022-09-09T05:47:25;8.05;;;1.90;;
74412;SDS011;62848;55.798;37.608;2022-09-09T05:49:52;3.45;;;1.88;;
74412;SDS011;62848;55.798;37.608;2022-09-09T05:52:20;3.20;;;1.95;;
74412;SDS011;62848;55.798;37.608;2022-09-09T05:54:46;5.20;;;1.83;;
74412;SDS011;62848;55.798;37.608;2022-09-09T05:57:12;2.88;;;1.80;;
74412;SDS011;62848;55.798;37.608;2022-09-09T05:59:39;5.45;;;1.90;;
74412;SDS011;62848;55.798;37.608;2022-09-09T06:02:05;4.47;;;2.10;;
74412;SDS011;62848;55.798;37.608;2022-09-09T06:04:32;7.32;;;4.65;;
74412;SDS011;62848;55.798;37.608;2022-09-09T06:06:59;5.72;;;2.67;;
74412;SDS011;62848;55.798;37.608;2022-09-09T06:09:26;4.85;;;2.20;;
74412;SDS011;62848;55.798;37.608;2022-09-09T06:11:52;5.80;;;1.90;;
74412;SDS011;62848;55.798;37.608;2022-09-09T06:14:19;4.28;;;1.88;;
74412;SDS011;62848;55.798;37.608;2022-09-09T06:16:46;6.85;;;2.05;;
74412;SDS011;62848;55.798;37.608;2022-09-09T06:19:13;4.88;;;1.75;;
74412;SDS011;62848;55.798;37.608;2022-09-09T06:21:39;4.82;;;1.85;;
74412;SDS011;62848;55.798;37.608;2022-09-09T06:24:15;10.75;;;2.10;;
74412;SDS011;62848;55.798;37.608;2022-09-09T06:26:44;7.57;;;2.08;;
74412;SDS011;62848;55.798;37.608;2022-09-09T06:29:11;5.88;;;2.13;;
74412;SDS011;62848;55.798;37.608;2022-09-09T06:31:37;3.83;;;1.90;;
74412;SDS011;62848;55.798;37.608;2022-09-09T06:34:04;5.85;;;2.00;;
74412;SDS011;62848;55.798;37.608;2022-09-09T06:36:32;3.67;;;1.67;;
74412;SDS011;62848;55.798;37.608;2022-09-09T06:39:00;6.93;;;2.03;;
74412;SDS011;62848;55.798;37.608;2022-09-09T06:41:28;4.95;;;2.05;;
74412;SDS011;62848;55.798;37.608;2022-09-09T06:43:55;3.45;;;2.08;;
74412;SDS011;62848;55.798;37.608;2022-09-09T06:46:26;4.05;;;1.95;;
74412;SDS011;62848;55.798;37.608;2022-09-09T06:48:54;5.03;;;1.73;;
74412;SDS011;62848;55.798;37.608;2022-09-09T06:51:23;4.90;;;1.43;;
74412;SDS011;62848;55.798;37.608;2022-09-09T06:53:52;5.13;;;1.88;;
74412;SDS011;62848;55.798;37.608;2022-09-09T06:56:24;3.00;;;1.65;;
74412;SDS011;62848;55.798;37.608;2022-09-09T06:58:53;4.32;;;1.40;;
74412;SDS011;62848;55.798;37.608;2022-09-09T07:01:22;5.15;;;1.73;;
74412;SDS011;62848;55.798;37.608;2022-09-09T07:03:53;2.53;;;1.40;;
74412;SDS011;62848;55.798;37.608;2022-09-09T07:06:21;2.45;;;1.48;;
74412;SDS011;62848;55.798;37.608;2022-09-09T07:08:53;2.50;;;1.33;;
74412;SDS011;62848;55.798;37.608;2022-09-09T07:11:21;2.00;;;1.20;;
74412;SDS011;62848;55.798;37.608;2022-09-09T07:13:48;6.63;;;1.50;;
74412;SDS011;62848;55.798;37.608;2022-09-09T07:16:16;2.35;;;1.30;;
74412;SDS011;62848;55.798;37.608;2022-09-09T07:18:43;2.60;;;1.30;;
74412;SDS011;62848;55.798;37.608;2022-09-09T07:21:10;3.03;;;1.40;;
74412;SDS011;62848;55.798;37.608;2022-09-09T07:23:38;2.95;;;1.48;;
74412;SDS011;62848;55.798;37.608;2022-09-09T07:26:09;3.55;;;1.60;;
74412;SDS011;62848;55.798;37.608;2022-09-09T07:28:37;4.53;;;1.45;;
74412;SDS011;62848;55.798;37.608;2022-09-09T07:31:04;2.75;;;1.50;;
74412;SDS011;62848;55.798;37.608;2022-09-09T07:33:32;5.78;;;1.58;;
74412;SDS011;62848;55.798;37.608;2022-09-09T07:36:07;4.00;;;1.48;;
74412;SDS011;62848;55.798;37.608;2022-09-09T07:38:39;5.57;;;1.70;;
74412;SDS011;62848;55.798;37.608;2022-09-09T07:41:11;6.28;;;1.70;;
74412;SDS011;62848;55.798;37.608;2022-09-09T07:43:44;4.68;;;1.23;;
74412;SDS011;62848;55.798;37.608;2022-09-09T07:46:13;2.95;;;1.27;;
74412;SDS011;62848;55.798;37.608;2022-09-09T07:48:51;5.20;;;1.20;;
74412;SDS011;62848;55.798;37.608;2022-09-09T07:51:20;3.75;;;1.30;;
74412;SDS011;62848;55.798;37.608;2022-09-09T07:53:51;3.63;;;1.10;;
74412;SDS011;62848;55.798;37.608;2022-09-09T07:56:20;2.28;;;1.10;;
74412;SDS011;62848;55.798;37.608;2022-09-09T07:58:48;6.43;;;1.08;;
74412;SDS011;62848;55.798;37.608;2022-09-09T08:01:17;6.57;;;3.65;;
74412;SDS011;62848;55.798;37.608;2022-09-09T08:03:55;4.30;;;1.20;;
74412;SDS011;62848;55.798;37.608;2022-09-09T08:06:30;4.50;;;1.40;;
74412;SDS011;62848;55.798;37.608;2022-09-09T08:09:00;3.85;;;0.98;;
74412;SDS011;62848;55.798;37.608;2022-09-09T08:11:27;3.67;;;1.10;;
74412;SDS011;62848;55.798;37.608;2022-09-09T08:13:54;2.22;;;1.00;;
74412;SDS011;62848;55.798;37.608;2022-09-09T08:16:26;2.38;;;1.00;;
74412;SDS011;62848;55.798;37.608;2022-09-09T08:18:55;6.10;;;1.10;;
74412;SDS011;62848;55.798;37.608;2022-09-09T08:21:29;2.95;;;0.82;;
74412;SDS011;62848;55.798;37.608;2022-09-09T08:23:58;4.88;;;0.93;;
74412;SDS011;62848;55.798;37.608;2022-09-09T08:26:30;2.45;;;0.82;;
74412;SDS011;62848;55.798;37.608;2022-09-09T08:28:59;2.50;;;0.80;;
74412;SDS011;62848;55.798;37.608;2022-09-09T08:31:29;2.40;;;0.90;;
74412;SDS011;62848;55.798;37.608;2022-09-09T08:33:58;4.90;;;1.05;;
74412;SDS011;62848;55.798;37.608;2022-09-09T08:36:27;2.95;;;0.85;;
74412;SDS011;62848;55.798;37.608;2022-09-09T08:38:56;2.67;;;1.10;;
74412;SDS011;62848;55.798;37.608;2022-09-09T08:49:39;2.40;;;1.00;;
74412;SDS011;62848;55.798;37.608;2022-09-09T08:52:28;3.95;;;0.90;;
74412;SDS011;62848;55.798;37.608;2022-09-09T08:54:56;2.95;;;0.70;;
74412;SDS011;62848;55.798;37.608;2022-09-09T08:57:44;1.67;;;0.70;;
74412;SDS011;62848;55.798;37.608;2022-09-09T09:00:11;2.13;;;0.80;;
74412;SDS011;62848;55.798;37.608;2022-09-09T09:02:41;3.63;;;1.02;;
74412;SDS011;62848;55.798;37.608;2022-09-09T09:10:45;4.75;;;0.90;;
74412;SDS011;62848;55.798;37.608;2022-09-09T09:13:17;1.90;;;0.80;;
74412;SDS011;62848;55.798;37.608;2022-09-09T09:15:51;4.28;;;0.90;;
74412;SDS011;62848;55.798;37.608;2022-09-09T09:18:21;5.45;;;1.20;;
74412;SDS011;62848;55.798;37.608;2022-09-09T09:20:58;2.30;;;1.00;;
74412;SDS011;62848;55.798;37.608;2022-09-09T09:23:37;3.17;;;0.90;;
74412;SDS011;62848;55.798;37.608;2022-09-09T09:26:11;1.50;;;0.80;;
74412;SDS011;62848;55.798;37.608;2022-09-09T09:28:37;1.10;;;0.70;;
74412;SDS011;62848;55.798;37.608;2022-09-09T09:31:05;2.53;;;1.20;;
74412;SDS011;62848;55.798;37.608;2022-09-09T09:36:12;3.97;;;1.02;;
74412;SDS011;62848;55.798;37.608;2022-09-09T09:38:51;2.80;;;1.05;;
74412;SDS011;62848;55.798;37.608;2022-09-09T09:41:32;4.78;;;1.00;;
74412;SDS011;62848;55.798;37.608;2022-09-09T09:44:01;4.00;;;2.25;;
74412;SDS011;62848;55.798;37.608;2022-09-09T09:46:28;3.95;;;1.40;;
74412;SDS011;62848;55.798;37.608;2022-09-09T09:48:58;4.47;;;1.20;;
74412;SDS011;62848;55.798;37.608;2022-09-09T09:51:26;2.78;;;0.85;;
74412;SDS011;62848;55.798;37.608;2022-09-09T09:54:03;3.67;;;1.00;;
74412;SDS011;62848;55.798;37.608;2022-09-09T09:56:34;3.45;;;1.00;;
74412;SDS011;62848;55.798;37.608;2022-09-09T09:59:01;2.88;;;0.80;;
74412;SDS011;62848;55.798;37.608;2022-09-09T10:01:31;2.70;;;0.82;;
74412;SDS011;62848;55.798;37.608;2022-09-09T10:04:00;2.15;;;0.80;;
74412;SDS011;62848;55.798;37.608;2022-09-09T10:06:39;2.00;;;0.73;;
74412;SDS011;62848;55.798;37.608;2022-09-09T10:11:53;4.82;;;1.02;;
74412;SDS011;62848;55.798;37.608;2022-09-09T10:17:30;1.92;;;0.80;;
74412;SDS011;62848;55.798;37.608;2022-09-09T10:22:40;2.55;;;0.90;;
74412;SDS011;62848;55.798;37.608;2022-09-09T10:31:22;4.18;;;1.70;;
74412;SDS011;62848;55.798;37.608;2022-09-09T10:34:13;3.13;;;1.08;;
74412;SDS011;62848;55.798;37.608;2022-09-09T10:36:56;6.75;;;1.25;;
74412;SDS011;62848;55.798;37.608;2022-09-09T10:42:04;3.95;;;1.10;;
74412;SDS011;62848;55.798;37.608;2022-09-09T10:56:16;1.98;;;0.85;;
74412;SDS011;62848;55.798;37.608;2022-09-09T11:01:41;3.17;;;0.90;;
74412;SDS011;62848;55.798;37.608;2022-09-09T11:04:13;2.80;;;0.82;;
74412;SDS011;62848;55.798;37.608;2022-09-09T11:06:46;1.77;;;0.70;;
74412;SDS011;62848;55.798;37.608;2022-09-09T11:09:18;2.80;;;0.70;;
74412;SDS011;62848;55.798;37.608;2022-09-09T11:11:55;1.45;;;0.70;;
74412;SDS011;62848;55.798;37.608;2022-09-09T11:17:16;4.60;;;1.00;;
74412;SDS011;62848;55.798;37.608;2022-09-09T11:19:47;3.20;;;1.00;;
74412;SDS011;62848;55.798;37.608;2022-09-09T11:22:27;5.55;;;1.10;;
74412;SDS011;62848;55.798;37.608;2022-09-09T11:36:54;3.17;;;1.10;;
74412;SDS011;62848;55.798;37.608;2022-09-09T11:40:19;4.50;;;1.10;;
74412;SDS011;62848;55.798;37.608;2022-09-09T11:42:47;3.42;;;1.10;;
74412;SDS011;62848;55.798;37.608;2022-09-09T11:45:22;4.38;;;1.05;;
74412;SDS011;62848;55.798;37.608;2022-09-09T11:47:54;2.95;;;1.10;;
74412;SDS011;62848;55.798;37.608;2022-09-09T11:52:49;5.60;;;1.30;;
74412;SDS011;62848;55.798;37.608;2022-09-09T11:57:58;3.63;;;1.35;;
74412;SDS011;62848;55.798;37.608;2022-09-09T12:06:11;3.88;;;1.40;;
74412;SDS011;62848;55.798;37.608;2022-09-09T12:08:51;5.25;;;1.50;;
74412;SDS011;62848;55.798;37.608;2022-09-09T12:11:24;5.03;;;1.45;;
74412;SDS011;62848;55.798;37.608;2022-09-09T12:13:52;3.55;;;1.40;;
74412;SDS011;62848;55.798;37.608;2022-09-09T12:16:32;4.57;;;1.42;;
74412;SDS011;62848;55.798;37.608;2022-09-09T12:19:13;7.82;;;1.75;;
74412;SDS011;62848;55.798;37.608;2022-09-09T12:27:31;6.82;;;1.80;;
74412;SDS011;62848;55.798;37.608;2022-09-09T12:30:04;5.57;;;1.67;;
74412;SDS011;62848;55.798;37.608;2022-09-09T12:32:37;6.10;;;2.03;;
74412;SDS011;62848;55.798;37.608;2022-09-09T12:35:26;6.47;;;1.73;;
74412;SDS011;62848;55.798;37.608;2022-09-09T12:40:27;4.10;;;1.20;;
74412;SDS011;62848;55.798;37.608;2022-09-09T12:42:57;4.32;;;1.15;;
74412;SDS011;62848;55.798;37.608;2022-09-09T12:45:27;6.00;;;1.45;;
74412;SDS011;62848;55.798;37.608;2022-09-09T12:47:57;3.90;;;1.60;;
74412;SDS011;62848;55.798;37.608;2022-09-09T12:50:30;5.53;;;1.30;;
74412;SDS011;62848;55.798;37.608;2022-09-09T12:55:50;7.72;;;1.60;;
74412;SDS011;62848;55.798;37.608;2022-09-09T12:58:21;5.40;;;1.63;;
74412;SDS011;62848;55.798;37.608;2022-09-09T13:00:51;9.10;;;2.10;;
74412;SDS011;62848;55.798;37.608;2022-09-09T13:03:21;3.75;;;1.45;;
74412;SDS011;62848;55.798;37.608;2022-09-09T13:05:48;7.20;;;1.50;;
74412;SDS011;62848;55.798;37.608;2022-09-09T13:08:15;8.57;;;1.30;;
74412;SDS011;62848;55.798;37.608;2022-09-09T13:10:56;6.68;;;1.50;;
74412;SDS011;62848;55.798;37.608;2022-09-09T13:13:35;4.30;;;1.30;;
74412;SDS011;62848;55.798;37.608;2022-09-09T13:16:04;6.15;;;1.63;;
74412;SDS011;62848;55.798;37.608;2022-09-09T13:18:43;3.85;;;1.50;;
74412;SDS011;62848;55.798;37.608;2022-09-09T13:21:09;3.17;;;1.13;;
74412;SDS011;62848;55.798;37.608;2022-09-09T13:23:36;3.63;;;1.20;;
74412;SDS011;62848;55.798;37.608;2022-09-09T13:26:22;5.60;;;1.40;;
74412;SDS011;62848;55.798;37.608;2022-09-09T13:28:51;4.30;;;1.20;;
74412;SDS011;62848;55.798;37.608;2022-09-09T13:31:23;4.32;;;1.40;;
74412;SDS011;62848;55.798;37.608;2022-09-09T13:33:52;3.95;;;1.08;;
74412;SDS011;62848;55.798;37.608;2022-09-09T13:36:27;5.00;;;1.48;;
74412;SDS011;62848;55.798;37.608;2022-09-09T13:38:56;2.90;;;1.40;;
74412;SDS011;62848;55.798;37.608;2022-09-09T13:41:41;3.53;;;1.80;;
74412;SDS011;62848;55.798;37.608;2022-09-09T13:44:23;4.72;;;1.65;;
74412;SDS011;62848;55.798;37.608;2022-09-09T13:47:04;7.00;;;2.03;;
74412;SDS011;62848;55.798;37.608;2022-09-09T13:49:42;6.50;;;2.40;;
74412;SDS011;62848;55.798;37.608;2022-09-09T13:52:09;4.25;;;1.50;;
74412;SDS011;62848;55.798;37.608;2022-09-09T13:54:38;5.47;;;1.30;;
74412;SDS011;62848;55.798;37.608;2022-09-09T13:57:12;3.47;;;1.05;;
74412;SDS011;62848;55.798;37.608;2022-09-09T13:59:48;5.35;;;1.35;;
74412;SDS011;62848;55.798;37.608;2022-09-09T14:02:15;5.95;;;1.50;;
74412;SDS011;62848;55.798;37.608;2022-09-09T14:04:42;4.28;;;1.25;;
74412;SDS011;62848;55.798;37.608;2022-09-09T14:07:15;5.53;;;1.40;;
74412;SDS011;62848;55.798;37.608;2022-09-09T14:09:43;3.35;;;1.40;;
74412;SDS011;62848;55.798;37.608;2022-09-09T14:12:13;5.80;;;2.13;;
74412;SDS011;62848;55.798;37.608;2022-09-09T14:14:40;6.95;;;3.70;;
74412;SDS011;62848;55.798;37.608;2022-09-09T14:17:07;6.13;;;2.38;;
74412;SDS011;62848;55.798;37.608;2022-09-09T14:19:34;6.13;;;2.05;;
74412;SDS011;62848;55.798;37.608;2022-09-09T14:22:02;5.30;;;2.05;;
74412;SDS011;62848;55.798;37.608;2022-09-09T14:24:28;6.97;;;2.75;;
74412;SDS011;62848;55.798;37.608;2022-09-09T14:26:55;7.25;;;1.80;;
74412;SDS011;62848;55.798;37.608;2022-09-09T14:29:21;8.45;;;1.50;;
74412;SDS011;62848;55.798;37.608;2022-09-09T14:31:47;5.18;;;1.38;;
74412;SDS011;62848;55.798;37.608;2022-09-09T14:34:14;4.00;;;1.50;;
74412;SDS011;62848;55.798;37.608;2022-09-09T14:36:40;5.72;;;1.60;;
74412;SDS011;62848;55.798;37.608;2022-09-09T14:39:07;7.22;;;1.63;;
74412;SDS011;62848;55.798;37.608;2022-09-09T14:41:33;5.50;;;1.40;;
74412;SDS011;62848;55.798;37.608;2022-09-09T14:43:59;7.32;;;1.55;;
74412;SDS011;62848;55.798;37.608;2022-09-09T14:46:26;5.97;;;2.00;;
74412;SDS011;62848;55.798;37.608;2022-09-09T14:48:52;5.38;;;1.50;;
74412;SDS011;62848;55.798;37.608;2022-09-09T14:51:20;6.50;;;1.40;;
74412;SDS011;62848;55.798;37.608;2022-09-09T14:53:50;4.10;;;1.33;;
74412;SDS011;62848;55.798;37.608;2022-09-09T14:58:47;3.63;;;1.70;;
74412;SDS011;62848;55.798;37.608;2022-09-09T15:01:14;6.35;;;1.63;;
74412;SDS011;62848;55.798;37.608;2022-09-09T15:03:47;3.75;;;1.58;;
74412;SDS011;62848;55.798;37.608;2022-09-09T15:06:15;3.90;;;1.40;;
74412;SDS011;62848;55.798;37.608;2022-09-09T15:08:42;3.90;;;1.25;;
74412;SDS011;62848;55.798;37.608;2022-09-09T15:11:10;5.13;;;1.50;;
74412;SDS011;62848;55.798;37.608;2022-09-09T15:13:38;6.13;;;1.80;;
74412;SDS011;62848;55.798;37.608;2022-09-09T15:16:06;4.50;;;1.45;;
74412;SDS011;62848;55.798;37.608;2022-09-09T15:18:38;3.83;;;1.65;;
74412;SDS011;62848;55.798;37.608;2022-09-09T15:21:11;3.70;;;1.58;;
74412;SDS011;62848;55.798;37.608;2022-09-09T15:23:42;3.38;;;1.35;;
74412;SDS011;62848;55.798;37.608;2022-09-09T15:26:09;4.32;;;1.20;;
74412;SDS011;62848;55.798;37.608;2022-09-09T15:28:37;3.28;;;1.50;;
74412;SDS011;62848;55.798;37.608;2022-09-09T15:31:08;4.22;;;1.40;;
74412;SDS011;62848;55.798;37.608;2022-09-09T15:38:42;7.30;;;1.70;;
74412;SDS011;62848;55.798;37.608;2022-09-09T15:41:09;3.50;;;1.40;;
74412;SDS011;62848;55.798;37.608;2022-09-09T15:43:36;3.63;;;1.80;;
74412;SDS011;62848;55.798;37.608;2022-09-09T15:46:21;4.07;;;1.60;;
74412;SDS011;62848;55.798;37.608;2022-09-09T15:48:51;5.10;;;1.63;;
74412;SDS011;62848;55.798;37.608;2022-09-09T15:51:28;4.53;;;1.73;;
74412;SDS011;62848;55.798;37.608;2022-09-09T15:53:56;8.80;;;2.13;;
74412;SDS011;62848;55.798;37.608;2022-09-09T15:56:23;5.68;;;2.15;;
74412;SDS011;62848;55.798;37.608;2022-09-09T15:58:52;6.43;;;1.98;;
74412;SDS011;62848;55.798;37.608;2022-09-09T16:01:20;4.75;;;2.17;;
74412;SDS011;62848;55.798;37.608;2022-09-09T16:03:47;6.03;;;2.20;;
74412;SDS011;62848;55.798;37.608;2022-09-09T16:06:15;7.18;;;2.08;;
74412;SDS011;62848;55.798;37.608;2022-09-09T16:08:44;6.97;;;2.10;;
74412;SDS011;62848;55.798;37.608;2022-09-09T16:11:16;5.10;;;2.00;;
74412;SDS011;62848;55.798;37.608;2022-09-09T16:13:44;6.83;;;2.33;;
74412;SDS011;62848;55.798;37.608;2022-09-09T16:16:14;6.57;;;2.30;;
74412;SDS011;62848;55.798;37.608;2022-09-09T16:18:48;5.85;;;2.55;;
74412;SDS011;62848;55.798;37.608;2022-09-09T16:21:27;5.85;;;2.50;;
74412;SDS011;62848;55.798;37.608;2022-09-09T16:23:55;7.43;;;2.40;;
74412;SDS011;62848;55.798;37.608;2022-09-09T16:26:26;7.43;;;2.83;;
74412;SDS011;62848;55.798;37.608;2022-09-09T16:28:53;5.65;;;2.55;;
74412;SDS011;62848;55.798;37.608;2022-09-09T16:31:20;7.57;;;2.70;;
74412;SDS011;62848;55.798;37.608;2022-09-09T16:33:49;10.70;;;3.08;;
74412;SDS011;62848;55.798;37.608;2022-09-09T16:36:17;8.10;;;2.67;;
74412;SDS011;62848;55.798;37.608;2022-09-09T16:38:48;6.30;;;2.95;;
74412;SDS011;62848;55.798;37.608;2022-09-09T16:41:22;8.88;;;3.10;;
74412;SDS011;62848;55.798;37.608;2022-09-09T16:43:59;6.85;;;3.08;;
74412;SDS011;62848;55.798;37.608;2022-09-09T16:46:28;8.93;;;3.53;;
74412;SDS011;62848;55.798;37.608;2022-09-09T16:48:56;9.38;;;3.72;;
74412;SDS011;62848;55.798;37.608;2022-09-09T16:51:26;9.85;;;3.13;;
74412;SDS011;62848;55.798;37.608;2022-09-09T16:53:54;11.23;;;3.60;;
74412;SDS011;62848;55.798;37.608;2022-09-09T16:56:23;9.77;;;3.75;;
74412;SDS011;62848;55.798;37.608;2022-09-09T16:58:52;12.90;;;3.83;;
74412;SDS011;62848;55.798;37.608;2022-09-09T17:01:23;8.70;;;3.67;;
74412;SDS011;62848;55.798;37.608;2022-09-09T17:03:53;17.48;;;4.30;;
74412;SDS011;62848;55.798;37.608;2022-09-09T17:06:20;16.02;;;5.95;;
74412;SDS011;62848;55.798;37.608;2022-09-09T17:08:53;15.18;;;4.88;;
74412;SDS011;62848;55.798;37.608;2022-09-09T17:11:23;17.38;;;4.55;;
74412;SDS011;62848;55.798;37.608;2022-09-09T17:13:50;14.60;;;4.40;;
74412;SDS011;62848;55.798;37.608;2022-09-09T17:16:18;12.02;;;4.53;;
74412;SDS011;62848;55.798;37.608;2022-09-09T17:18:48;10.93;;;4.30;;
74412;SDS011;62848;55.798;37.608;2022-09-09T17:21:16;12.07;;;4.28;;
74412;SDS011;62848;55.798;37.608;2022-09-09T17:23:44;11.07;;;4.40;;
74412;SDS011;62848;55.798;37.608;2022-09-09T17:26:12;12.85;;;4.32;;
74412;SDS011;62848;55.798;37.608;2022-09-09T17:28:41;13.15;;;4.60;;
74412;SDS011;62848;55.798;37.608;2022-09-09T17:31:11;13.23;;;4.67;;
74412;SDS011;62848;55.798;37.608;2022-09-09T17:33:40;11.88;;;4.60;;
74412;SDS011;62848;55.798;37.608;2022-09-09T17:36:13;12.98;;;5.15;;
74412;SDS011;62848;55.798;37.608;2022-09-09T17:38:40;17.80;;;5.18;;